Eltopia, Washington
Current Conditions -  °F | °C
As of 8:53 PM on Friday 31 Oct 2014 (Local Time) from KPSC Reporting Station
Broken Clouds Broken Clouds  
Wind Chill: 53°   Ceiling: 11000
Heat Index: 53°   Visibility: 10mi
Dew Point: 45°   Wind: 10mph
Humidity: 74%   Direction: 200°SSW
Pressure: 29.8"   Gusts: NA
Location:  46.46°N, 119.02°W
Report Text: KPSC 010353Z 20009KT 10SM FEW070 BKN110 12/07 A2980 RMK AO2 SLP090 T01170072
Loading
Personal Weather Stations






























Interactive Weather Map
Tropical Storm Tracking
New forecast layout! Learn more

10-Day Weather Forecast

Advertisements
Track Severe Weather on mobile